Time;durP1;ratioP1;P1;durP2;ratioP2;P2;SDS_P1;SDS_P2;PMS_P1;PMS_P2;Temp;Humidity;BMP_temperature;BMP_pressure;BME280_temperature;BME280_humidity;BME280_pressure;Samples;Min_cycle;Max_cycle;Signal;HPM_P1;HPM_P2
2021/10/17 00:00:33;;;;;;;9.38;4.90;;;;;;;;;;5080291;28;20048;-64
2021/10/17 00:03:03;;;;;;;10.15;5.20;;;;;;;;;;5069861;28;20049;-67
2021/10/17 00:05:32;;;;;;;7.95;4.88;;;;;;;;;;5075223;28;20071;-64
2021/10/17 00:08:01;;;;;;;10.77;5.10;;;;;;;;;;5068722;28;20080;-64
2021/10/17 00:10:33;;;;;;;9.27;4.85;;;;;;;;;;5070799;28;20471;-64
2021/10/17 00:13:02;;;;;;;12.98;5.30;;;;;;;;;;5074807;28;20532;-65
2021/10/17 00:15:32;;;;;;;10.80;5.13;;;;;;;;;;5068422;28;20080;-64
2021/10/17 00:18:01;;;;;;;8.35;5.15;;;;;;;;;;5070052;28;20048;-66
2021/10/17 00:20:31;;;;;;;9.88;4.95;;;;;;;;;;5079924;28;20047;-64
2021/10/17 00:22:59;;;;;;;9.80;5.18;;;;;;;;;;5063352;28;20041;-64
2021/10/17 00:25:28;;;;;;;11.88;5.45;;;;;;;;;;5069748;28;20492;-64
2021/10/17 00:27:56;;;;;;;10.38;5.25;;;;;;;;;;5071186;28;20550;-66
2021/10/17 00:30:24;;;;;;;11.95;4.68;;;;;;;;;;5079889;28;20456;-64
2021/10/17 00:32:53;;;;;;;9.65;4.82;;;;;;;;;;5084970;28;20412;-65
2021/10/17 00:35:22;;;;;;;12.60;5.35;;;;;;;;;;5062773;28;20044;-64
2021/10/17 00:37:51;;;;;;;12.93;5.55;;;;;;;;;;5077062;28;20482;-64
2021/10/17 00:40:21;;;;;;;10.63;5.57;;;;;;;;;;5078783;28;20131;-64
2021/10/17 00:42:50;;;;;;;11.82;5.45;;;;;;;;;;5067566;28;20048;-64
2021/10/17 00:45:20;;;;;;;8.63;5.28;;;;;;;;;;5079936;28;20047;-64
2021/10/17 00:47:48;;;;;;;9.15;5.18;;;;;;;;;;5084443;28;20163;-64
2021/10/17 00:50:16;;;;;;;10.70;5.50;;;;;;;;;;5072403;28;20488;-65
2021/10/17 00:52:45;;;;;;;10.98;5.22;;;;;;;;;;5080800;28;20131;-66
2021/10/17 00:55:15;;;;;;;16.38;6.05;;;;;;;;;;5073709;28;20098;-64
2021/10/17 00:57:44;;;;;;;10.02;5.38;;;;;;;;;;5074445;28;20091;-64
2021/10/17 01:00:13;;;;;;;9.35;5.15;;;;;;;;;;5074481;28;20079;-64
2021/10/17 01:02:42;;;;;;;12.32;5.45;;;;;;;;;;5077091;28;20086;-65
2021/10/17 01:05:13;;;;;;;7.85;5.00;;;;;;;;;;5071996;28;20436;-64
2021/10/17 01:07:41;;;;;;;11.00;6.18;;;;;;;;;;5061488;28;20381;-64
2021/10/17 01:10:10;;;;;;;12.75;5.55;;;;;;;;;;5076713;28;20423;-64
2021/10/17 01:12:40;;;;;;;15.43;5.70;;;;;;;;;;5072964;28;20076;-64
2021/10/17 01:15:09;;;;;;;10.90;6.18;;;;;;;;;;5071770;28;20099;-65
2021/10/17 01:17:37;;;;;;;10.93;5.72;;;;;;;;;;5072946;28;20037;-69
2021/10/17 01:20:08;;;;;;;12.35;6.50;;;;;;;;;;5075332;28;20140;-64
2021/10/17 01:22:36;;;;;;;12.35;5.82;;;;;;;;;;5072102;28;20091;-65
2021/10/17 01:25:04;;;;;;;13.30;6.07;;;;;;;;;;5074598;28;20379;-64
2021/10/17 01:27:33;;;;;;;10.50;5.97;;;;;;;;;;5086437;28;20126;-65
2021/10/17 01:30:01;;;;;;;11.80;5.60;;;;;;;;;;5074647;28;20139;-67
2021/10/17 01:32:29;;;;;;;13.00;6.28;;;;;;;;;;5071432;28;20557;-64
2021/10/17 01:34:57;;;;;;;10.60;5.57;;;;;;;;;;5071365;28;20072;-64
2021/10/17 01:37:27;;;;;;;11.82;5.57;;;;;;;;;;5072598;28;20119;-64
2021/10/17 01:39:55;;;;;;;14.45;5.93;;;;;;;;;;5071675;28;20131;-65
2021/10/17 01:42:33;;;;;;;8.60;4.78;;;;;;;;;;3936511;28;10024108;-65
2021/10/17 01:45:02;;;;;;;13.27;5.90;;;;;;;;;;1733065;28;10002120;-65
2021/10/17 01:47:31;;;;;;;9.35;5.95;;;;;;;;;;5067265;28;20087;-64
2021/10/17 01:49:59;;;;;;;12.40;6.35;;;;;;;;;;5054697;28;20135;-65
2021/10/17 01:52:29;;;;;;;14.13;5.97;;;;;;;;;;5062657;28;20140;-64
2021/10/17 01:54:57;;;;;;;13.82;5.90;;;;;;;;;;5070911;28;20080;-64
2021/10/17 01:57:26;;;;;;;12.27;6.05;;;;;;;;;;5063302;28;20145;-64
2021/10/17 01:59:54;;;;;;;10.05;6.20;;;;;;;;;;5071336;28;20568;-64
2021/10/17 02:02:22;;;;;;;12.05;5.85;;;;;;;;;;5070637;28;20139;-65
2021/10/17 02:04:50;;;;;;;12.07;6.35;;;;;;;;;;5067628;28;20404;-66
2021/10/17 02:07:19;;;;;;;12.98;6.15;;;;;;;;;;5066465;28;20084;-67
2021/10/17 02:09:48;;;;;;;11.63;5.63;;;;;;;;;;5075435;28;20169;-65
2021/10/17 02:12:21;;;;;;;12.98;6.43;;;;;;;;;;5071788;28;20123;-64
2021/10/17 02:14:49;;;;;;;14.07;6.85;;;;;;;;;;5072795;28;20634;-68
2021/10/17 02:17:17;;;;;;;16.42;6.85;;;;;;;;;;5070979;28;20068;-64
2021/10/17 02:19:45;;;;;;;12.20;6.13;;;;;;;;;;5075146;28;20044;-66
2021/10/17 02:22:14;;;;;;;12.52;5.70;;;;;;;;;;5071179;28;20135;-65
2021/10/17 02:24:42;;;;;;;14.55;6.20;;;;;;;;;;5065482;28;20053;-64
2021/10/17 02:27:12;;;;;;;11.98;6.45;;;;;;;;;;5071601;28;20053;-65
2021/10/17 02:29:40;;;;;;;13.30;6.93;;;;;;;;;;5075462;28;20190;-64
2021/10/17 02:32:08;;;;;;;15.40;6.20;;;;;;;;;;5075426;28;20131;-65
2021/10/17 02:34:38;;;;;;;12.40;6.45;;;;;;;;;;5090639;28;20075;-65
2021/10/17 02:37:06;;;;;;;14.38;6.38;;;;;;;;;;5074564;28;20162;-65
2021/10/17 02:39:34;;;;;;;10.75;6.07;;;;;;;;;;5072861;28;20037;-64
2021/10/17 02:42:03;;;;;;;11.18;6.32;;;;;;;;;;5082473;28;20131;-65
2021/10/17 02:44:32;;;;;;;11.20;6.40;;;;;;;;;;5079256;28;20080;-65
2021/10/17 02:47:01;;;;;;;13.65;6.65;;;;;;;;;;5072223;28;20095;-65
2021/10/17 02:49:29;;;;;;;11.00;5.28;;;;;;;;;;5079714;28;20040;-64
2021/10/17 02:51:57;;;;;;;13.73;6.45;;;;;;;;;;5075574;28;20051;-65
2021/10/17 02:54:26;;;;;;;10.73;5.88;;;;;;;;;;5070096;28;20132;-66
2021/10/17 02:56:54;;;;;;;11.30;6.25;;;;;;;;;;5066576;28;20135;-64
2021/10/17 02:59:22;;;;;;;10.75;5.68;;;;;;;;;;5077614;28;20083;-64
2021/10/17 03:01:52;;;;;;;14.80;6.72;;;;;;;;;;5070615;28;20108;-65
2021/10/17 03:04:21;;;;;;;13.48;6.18;;;;;;;;;;5069816;28;20044;-65
2021/10/17 03:06:49;;;;;;;12.25;6.43;;;;;;;;;;5072834;28;20075;-66
2021/10/17 03:09:17;;;;;;;12.82;6.35;;;;;;;;;;5086756;28;20090;-64
2021/10/17 03:11:45;;;;;;;15.13;6.47;;;;;;;;;;5069581;28;20575;-66
2021/10/17 03:14:14;;;;;;;12.70;7.03;;;;;;;;;;5070634;28;20496;-64
2021/10/17 03:16:42;;;;;;;13.35;6.90;;;;;;;;;;5072805;28;20123;-64
2021/10/17 03:19:12;;;;;;;14.43;6.22;;;;;;;;;;5074697;28;20372;-65
2021/10/17 03:21:40;;;;;;;11.70;6.30;;;;;;;;;;5071416;28;20084;-68
2021/10/17 03:24:08;;;;;;;12.00;6.18;;;;;;;;;;5077751;28;20050;-66
2021/10/17 03:26:37;;;;;;;12.18;6.47;;;;;;;;;;5072024;28;20139;-65
2021/10/17 03:29:05;;;;;;;14.80;6.50;;;;;;;;;;5070945;28;20123;-65
2021/10/17 03:31:37;;;;;;;13.43;5.75;;;;;;;;;;5068741;28;20423;-64
2021/10/17 03:34:05;;;;;;;11.05;5.97;;;;;;;;;;5083021;28;20040;-64
2021/10/17 03:36:35;;;;;;;13.07;6.40;;;;;;;;;;5076081;28;20159;-66
2021/10/17 03:39:04;;;;;;;13.07;5.68;;;;;;;;;;5086426;28;20497;-64
2021/10/17 03:41:32;;;;;;;10.38;5.78;;;;;;;;;;5073207;28;20358;-64
2021/10/17 03:44:01;;;;;;;12.48;6.57;;;;;;;;;;5084535;28;20048;-68
2021/10/17 03:46:29;;;;;;;12.48;6.40;;;;;;;;;;5070575;28;20139;-65
2021/10/17 03:48:58;;;;;;;15.10;6.43;;;;;;;;;;5066182;28;20098;-65
2021/10/17 03:51:26;;;;;;;12.05;6.35;;;;;;;;;;5070559;28;20096;-66
2021/10/17 03:53:55;;;;;;;11.90;6.20;;;;;;;;;;5070097;28;20048;-65
2021/10/17 03:56:24;;;;;;;11.25;6.28;;;;;;;;;;5082544;28;20506;-64
2021/10/17 03:58:52;;;;;;;12.52;6.30;;;;;;;;;;5070883;28;20135;-68
2021/10/17 04:01:20;;;;;;;13.55;5.88;;;;;;;;;;5059773;28;20457;-66
2021/10/17 04:03:49;;;;;;;10.07;6.25;;;;;;;;;;5056102;28;20131;-65
2021/10/17 04:06:17;;;;;;;10.90;5.75;;;;;;;;;;5078926;28;20071;-64
2021/10/17 04:08:45;;;;;;;12.75;6.78;;;;;;;;;;5072005;28;20048;-66
2021/10/17 04:11:15;;;;;;;12.13;5.75;;;;;;;;;;5073576;28;20468;-64
2021/10/17 04:13:43;;;;;;;15.77;6.70;;;;;;;;;;5075233;28;20055;-65
2021/10/17 04:16:11;;;;;;;16.13;6.85;;;;;;;;;;5073705;28;20052;-66
2021/10/17 04:18:40;;;;;;;11.48;6.18;;;;;;;;;;5072925;28;20400;-65
2021/10/17 04:21:08;;;;;;;11.15;5.93;;;;;;;;;;5076555;28;20080;-65
2021/10/17 04:23:36;;;;;;;14.13;6.28;;;;;;;;;;5079848;28;20044;-65
2021/10/17 04:26:05;;;;;;;11.43;6.30;;;;;;;;;;5070831;28;20589;-64
2021/10/17 04:28:34;;;;;;;12.18;6.85;;;;;;;;;;5073084;28;20556;-65
2021/10/17 04:31:03;;;;;;;15.63;6.55;;;;;;;;;;5073146;28;20063;-65
2021/10/17 04:33:31;;;;;;;11.48;6.40;;;;;;;;;;5074936;28;20139;-64
2021/10/17 04:35:59;;;;;;;12.00;6.28;;;;;;;;;;5078607;28;20080;-65
2021/10/17 04:38:28;;;;;;;12.77;6.25;;;;;;;;;;5079102;28;20128;-65
2021/10/17 04:40:56;;;;;;;11.75;6.13;;;;;;;;;;5053580;28;20053;-66
2021/10/17 04:43:24;;;;;;;10.95;6.07;;;;;;;;;;5082227;28;20578;-65
2021/10/17 04:45:54;;;;;;;12.73;6.28;;;;;;;;;;5062087;28;20147;-65
2021/10/17 04:48:22;;;;;;;11.52;6.22;;;;;;;;;;5075747;28;20097;-65
2021/10/17 04:50:51;;;;;;;9.80;5.88;;;;;;;;;;5087767;28;20067;-66
2021/10/17 04:53:19;;;;;;;11.40;5.88;;;;;;;;;;5080863;28;20432;-64
2021/10/17 04:55:47;;;;;;;13.68;5.85;;;;;;;;;;5072017;28;20084;-66
2021/10/17 04:58:15;;;;;;;11.10;6.07;;;;;;;;;;5071993;28;20051;-67
2021/10/17 05:00:44;;;;;;;11.52;5.90;;;;;;;;;;5072078;28;20497;-65
2021/10/17 05:03:14;;;;;;;12.27;5.57;;;;;;;;;;5075029;28;20428;-65
2021/10/17 05:05:43;;;;;;;11.85;5.47;;;;;;;;;;5073530;28;20487;-67
2021/10/17 05:08:11;;;;;;;10.85;5.78;;;;;;;;;;5074875;28;20113;-65
2021/10/17 05:10:39;;;;;;;11.27;5.65;;;;;;;;;;5072929;28;20138;-66
2021/10/17 05:13:08;;;;;;;15.68;5.88;;;;;;;;;;5073116;28;20144;-65
2021/10/17 05:15:36;;;;;;;9.52;5.47;;;;;;;;;;5075641;28;20044;-65
2021/10/17 05:18:05;;;;;;;10.40;5.57;;;;;;;;;;5074171;28;20044;-66
2021/10/17 05:20:34;;;;;;;11.32;6.03;;;;;;;;;;5092136;28;20075;-65
2021/10/17 05:23:03;;;;;;;11.98;5.28;;;;;;;;;;5075672;28;20049;-67
2021/10/17 05:25:31;;;;;;;15.07;6.40;;;;;;;;;;5070530;28;20049;-64
2021/10/17 05:27:59;;;;;;;11.50;5.50;;;;;;;;;;5083802;28;20512;-65
2021/10/17 05:30:27;;;;;;;8.20;5.63;;;;;;;;;;5072298;28;20491;-65
2021/10/17 05:32:56;;;;;;;10.07;5.40;;;;;;;;;;5077784;28;20052;-67
2021/10/17 05:35:24;;;;;;;13.45;5.55;;;;;;;;;;5073942;28;20447;-67
2021/10/17 05:37:54;;;;;;;11.52;5.80;;;;;;;;;;5072594;28;20144;-68
2021/10/17 05:40:22;;;;;;;13.90;6.40;;;;;;;;;;5052766;28;20050;-64
2021/10/17 05:42:51;;;;;;;12.50;5.70;;;;;;;;;;5068339;28;20058;-64
2021/10/17 05:45:19;;;;;;;12.45;5.38;;;;;;;;;;5076213;28;20131;-64
2021/10/17 05:47:47;;;;;;;11.73;5.45;;;;;;;;;;5070895;28;20079;-65
2021/10/17 05:50:15;;;;;;;12.07;5.50;;;;;;;;;;5072777;28;20466;-67
2021/10/17 05:52:44;;;;;;;12.80;5.95;;;;;;;;;;5074467;28;20079;-69
2021/10/17 05:55:13;;;;;;;13.75;6.30;;;;;;;;;;5071989;28;20052;-65
2021/10/17 05:57:42;;;;;;;10.70;5.75;;;;;;;;;;5074457;28;20044;-65
2021/10/17 06:00:10;;;;;;;12.38;5.93;;;;;;;;;;5075125;28;20139;-65
2021/10/17 06:02:39;;;;;;;10.90;5.53;;;;;;;;;;5077059;28;20044;-65
2021/10/17 06:05:08;;;;;;;10.25;5.30;;;;;;;;;;5065126;28;20048;-66
2021/10/17 06:07:36;;;;;;;12.50;5.93;;;;;;;;;;5067934;28;20044;-66
2021/10/17 06:10:07;;;;;;;10.27;5.55;;;;;;;;;;5073124;28;20083;-68
2021/10/17 06:12:39;;;;;;;11.60;5.50;;;;;;;;;;5076601;28;20122;-65
2021/10/17 06:15:08;;;;;;;10.95;5.45;;;;;;;;;;5071993;28;20086;-66
2021/10/17 06:17:36;;;;;;;10.13;4.97;;;;;;;;;;5085125;28;20062;-65
2021/10/17 06:20:06;;;;;;;10.45;5.47;;;;;;;;;;5089873;28;20047;-68
2021/10/17 06:22:34;;;;;;;13.23;5.63;;;;;;;;;;5071257;28;20076;-68
2021/10/17 06:25:03;;;;;;;9.23;5.55;;;;;;;;;;5071279;28;20113;-64
2021/10/17 06:27:31;;;;;;;12.52;6.00;;;;;;;;;;5074727;28;20602;-63
2021/10/17 06:30:01;;;;;;;9.93;5.20;;;;;;;;;;5077509;28;20054;-65
2021/10/17 06:32:29;;;;;;;10.27;5.57;;;;;;;;;;5068616;28;20080;-65
2021/10/17 06:34:57;;;;;;;14.27;5.63;;;;;;;;;;5071881;28;20147;-65
2021/10/17 06:37:26;;;;;;;10.63;5.20;;;;;;;;;;5071134;28;20143;-67
2021/10/17 06:39:54;;;;;;;10.35;6.03;;;;;;;;;;5080689;28;20131;-66
2021/10/17 06:42:23;;;;;;;11.85;5.80;;;;;;;;;;5067227;28;20166;-66
2021/10/17 06:44:51;;;;;;;12.07;5.55;;;;;;;;;;5079575;28;20080;-69
2021/10/17 06:47:21;;;;;;;9.55;5.10;;;;;;;;;;5067713;28;20080;-66
2021/10/17 06:49:49;;;;;;;9.68;5.38;;;;;;;;;;5082043;28;20086;-66
2021/10/17 06:52:17;;;;;;;11.98;5.85;;;;;;;;;;5064234;28;20123;-70
2021/10/17 06:54:45;;;;;;;11.45;5.53;;;;;;;;;;5066175;28;20472;-68
2021/10/17 06:57:14;;;;;;;11.48;5.93;;;;;;;;;;5059507;28;20136;-67
2021/10/17 06:59:42;;;;;;;13.05;5.65;;;;;;;;;;5065724;28;20140;-68
2021/10/17 07:02:10;;;;;;;10.45;5.15;;;;;;;;;;5069777;28;20135;-66
2021/10/17 07:04:40;;;;;;;11.80;5.60;;;;;;;;;;5084009;28;20052;-66
2021/10/17 07:07:08;;;;;;;9.02;4.82;;;;;;;;;;5085406;28;20146;-69
2021/10/17 07:09:37;;;;;;;13.60;5.22;;;;;;;;;;5074371;28;20048;-66
2021/10/17 07:12:05;;;;;;;9.85;4.95;;;;;;;;;;5059039;28;20401;-66
2021/10/17 07:14:33;;;;;;;9.82;5.60;;;;;;;;;;5065777;28;20048;-67
2021/10/17 07:17:02;;;;;;;9.90;5.53;;;;;;;;;;5072737;28;20071;-66
2021/10/17 07:19:30;;;;;;;14.15;6.05;;;;;;;;;;5075577;28;20087;-66
2021/10/17 07:21:59;;;;;;;12.25;5.63;;;;;;;;;;5075561;28;20055;-65
2021/10/17 07:24:28;;;;;;;11.02;6.38;;;;;;;;;;5068870;28;20048;-66
2021/10/17 07:26:58;;;;;;;9.65;5.47;;;;;;;;;;5067129;28;20076;-66
2021/10/17 07:29:27;;;;;;;10.95;6.20;;;;;;;;;;5069302;28;20430;-66
2021/10/17 07:31:55;;;;;;;10.45;5.93;;;;;;;;;;5061715;28;20049;-66
2021/10/17 07:34:24;;;;;;;13.13;6.13;;;;;;;;;;5068749;28;20048;-66
2021/10/17 07:36:52;;;;;;;10.43;5.40;;;;;;;;;;5057266;28;20493;-63
2021/10/17 07:39:22;;;;;;;10.93;5.90;;;;;;;;;;5050888;28;20041;-63
2021/10/17 07:41:50;;;;;;;14.02;6.30;;;;;;;;;;5056392;28;20049;-62
2021/10/17 07:44:19;;;;;;;13.98;6.28;;;;;;;;;;5055012;28;20131;-63
2021/10/17 07:46:47;;;;;;;10.35;6.03;;;;;;;;;;5062648;28;20084;-65
2021/10/17 07:49:15;;;;;;;11.55;5.72;;;;;;;;;;5078611;28;20083;-63
2021/10/17 07:51:44;;;;;;;10.50;5.65;;;;;;;;;;5060301;28;20464;-63
2021/10/17 07:54:12;;;;;;;9.10;6.03;;;;;;;;;;5054674;28;20068;-66
2021/10/17 07:56:42;;;;;;;15.88;6.95;;;;;;;;;;5059017;28;20464;-64
2021/10/17 07:59:10;;;;;;;9.77;5.35;;;;;;;;;;5066345;28;20495;-67
2021/10/17 08:01:39;;;;;;;11.98;6.60;;;;;;;;;;5073285;28;20183;-65
2021/10/17 08:04:08;;;;;;;10.63;5.22;;;;;;;;;;5065740;28;20052;-65
2021/10/17 08:06:36;;;;;;;11.68;5.85;;;;;;;;;;5065560;28;20049;-67
2021/10/17 08:09:05;;;;;;;11.88;6.53;;;;;;;;;;5084032;28;20056;-65
2021/10/17 08:11:33;;;;;;;11.20;5.60;;;;;;;;;;5058582;28;20052;-64
2021/10/17 08:14:03;;;;;;;11.80;5.68;;;;;;;;;;5053661;28;20131;-66
2021/10/17 08:16:31;;;;;;;9.55;5.20;;;;;;;;;;5054644;28;20171;-64
2021/10/17 08:19:00;;;;;;;14.18;6.10;;;;;;;;;;5081294;28;20462;-65
2021/10/17 08:21:30;;;;;;;11.90;6.00;;;;;;;;;;5051199;28;20095;-70
2021/10/17 08:23:58;;;;;;;11.55;5.90;;;;;;;;;;5062839;28;20041;-65
2021/10/17 08:26:27;;;;;;;14.60;6.60;;;;;;;;;;5076728;28;20079;-67
2021/10/17 08:28:56;;;;;;;50.70;7.85;;;;;;;;;;5076633;28;20128;-67
2021/10/17 08:31:26;;;;;;;43.55;6.95;;;;;;;;;;5060092;28;20052;-65
2021/10/17 08:33:54;;;;;;;19.73;7.47;;;;;;;;;;5059454;28;20564;-65
2021/10/17 08:36:23;;;;;;;13.52;6.80;;;;;;;;;;5065365;28;20052;-67
2021/10/17 08:39:12;;;;;;;13.10;5.75;;;;;;;;;;5067434;28;20053;-66
2021/10/17 08:41:40;;;;;;;11.90;5.82;;;;;;;;;;5057456;28;20045;-65
2021/10/17 08:44:09;;;;;;;13.02;6.13;;;;;;;;;;5075384;28;20562;-66
2021/10/17 08:46:40;;;;;;;13.18;7.10;;;;;;;;;;5063257;28;20063;-65
2021/10/17 08:49:10;;;;;;;12.90;7.25;;;;;;;;;;5067930;28;20466;-66
2021/10/17 08:51:39;;;;;;;14.90;7.55;;;;;;;;;;5069380;28;20789;-66
2021/10/17 08:54:08;;;;;;;12.10;7.13;;;;;;;;;;5066185;28;20067;-64
2021/10/17 08:56:36;;;;;;;17.55;7.20;;;;;;;;;;5053026;28;20045;-65
2021/10/17 08:59:05;;;;;;;15.30;7.00;;;;;;;;;;5069476;28;20055;-66
2021/10/17 09:01:34;;;;;;;13.85;6.88;;;;;;;;;;5060626;28;20056;-65
2021/10/17 09:04:07;;;;;;;12.90;6.50;;;;;;;;;;5059655;28;20040;-65
2021/10/17 09:06:37;;;;;;;12.75;6.60;;;;;;;;;;5080131;28;20052;-64
2021/10/17 09:09:07;;;;;;;10.88;6.30;;;;;;;;;;5068154;28;20055;-65
2021/10/17 09:11:36;;;;;;;10.75;6.47;;;;;;;;;;5057781;28;20049;-64
2021/10/17 09:14:05;;;;;;;14.52;7.97;;;;;;;;;;5065436;28;20064;-66
2021/10/17 09:16:37;;;;;;;12.10;6.68;;;;;;;;;;5078366;28;20400;-65
2021/10/17 09:19:11;;;;;;;13.25;6.68;;;;;;;;;;5065262;28;20040;-68
2021/10/17 09:21:54;;;;;;;16.80;7.63;;;;;;;;;;5068130;28;20504;-64
2021/10/17 09:24:27;;;;;;;13.45;7.18;;;;;;;;;;5067861;28;20098;-64
2021/10/17 09:27:09;;;;;;;12.45;6.75;;;;;;;;;;5071195;28;20075;-66
2021/10/17 09:29:39;;;;;;;13.13;7.95;;;;;;;;;;5072601;28;20059;-65
2021/10/17 09:32:15;;;;;;;15.02;8.05;;;;;;;;;;5068241;28;20803;-68
2021/10/17 09:34:54;;;;;;;17.92;8.07;;;;;;;;;;5059372;28;20048;-64
2021/10/17 09:37:30;;;;;;;13.50;6.97;;;;;;;;;;5063091;28;20040;-65
2021/10/17 09:40:05;;;;;;;14.50;7.60;;;;;;;;;;5076322;28;20048;-66
2021/10/17 09:42:39;;;;;;;13.85;7.28;;;;;;;;;;5070185;28;20051;-64
2021/10/17 09:45:21;;;;;;;15.88;7.45;;;;;;;;;;5052062;28;20064;-68
2021/10/17 09:47:49;;;;;;;12.35;7.57;;;;;;;;;;5055242;28;20466;-64
2021/10/17 09:50:21;;;;;;;13.45;8.23;;;;;;;;;;5070659;28;20056;-66
2021/10/17 09:53:03;;;;;;;15.68;8.10;;;;;;;;;;5074151;28;20052;-64
2021/10/17 09:55:32;;;;;;;13.35;6.88;;;;;;;;;;5063161;28;20381;-64
2021/10/17 09:58:03;;;;;;;16.35;7.28;;;;;;;;;;5071582;28;20118;-64
2021/10/17 10:00:33;;;;;;;12.25;7.20;;;;;;;;;;5071019;28;20052;-64
2021/10/17 10:03:03;;;;;;;15.25;8.10;;;;;;;;;;5070179;28;20047;-65
2021/10/17 10:05:34;;;;;;;10.75;6.55;;;;;;;;;;5071430;28;20124;-64
2021/10/17 10:08:03;;;;;;;12.13;6.82;;;;;;;;;;5071600;28;20048;-64
2021/10/17 10:10:32;;;;;;;15.30;7.45;;;;;;;;;;5075605;28;20132;-64
2021/10/17 10:13:03;;;;;;;14.38;7.32;;;;;;;;;;5077673;28;20048;-64
2021/10/17 10:15:32;;;;;;;15.15;7.47;;;;;;;;;;5084746;28;20142;-65
2021/10/17 10:18:03;;;;;;;12.70;6.85;;;;;;;;;;5074882;28;20053;-67
2021/10/17 10:20:33;;;;;;;12.23;7.22;;;;;;;;;;5069344;28;20487;-64
2021/10/17 10:23:02;;;;;;;11.50;6.82;;;;;;;;;;5077500;28;20075;-70
2021/10/17 10:25:31;;;;;;;12.35;7.55;;;;;;;;;;5072280;28;20075;-65
2021/10/17 10:28:00;;;;;;;12.15;6.57;;;;;;;;;;5076932;28;20036;-67
2021/10/17 10:30:32;;;;;;;12.48;7.00;;;;;;;;;;5070586;28;20091;-65
2021/10/17 10:33:11;;;;;;;11.27;6.45;;;;;;;;;;5076333;28;20045;-66
2021/10/17 10:35:54;;;;;;;14.07;8.32;;;;;;;;;;5072128;28;20108;-64
2021/10/17 10:38:52;;;;;;;11.68;6.13;;;;;;;;;;5069343;28;20049;-64
2021/10/17 10:41:22;;;;;;;13.82;7.50;;;;;;;;;;5078536;28;20421;-70
2021/10/17 10:43:51;;;;;;;12.75;6.85;;;;;;;;;;5076212;28;20752;-65
2021/10/17 10:46:29;;;;;;;12.52;6.80;;;;;;;;;;5085895;28;20523;-68
2021/10/17 10:48:58;;;;;;;13.00;7.03;;;;;;;;;;5070535;28;20088;-64
2021/10/17 10:51:38;;;;;;;11.80;7.00;;;;;;;;;;5072272;28;20116;-64
2021/10/17 10:54:09;;;;;;;17.00;7.07;;;;;;;;;;5074853;28;20504;-64
2021/10/17 10:56:41;;;;;;;12.85;6.95;;;;;;;;;;5080706;28;20607;-63
2021/10/17 10:59:10;;;;;;;13.20;7.70;;;;;;;;;;5077517;28;20049;-67
2021/10/17 11:01:57;;;;;;;13.57;8.13;;;;;;;;;;5070189;28;20048;-70
2021/10/17 11:04:49;;;;;;;13.18;7.70;;;;;;;;;;5070002;28;20045;-64
2021/10/17 11:07:18;;;;;;;13.90;7.75;;;;;;;;;;5050901;28;20052;-67
2021/10/17 11:09:49;;;;;;;13.10;7.10;;;;;;;;;;5070701;28;20063;-68
2021/10/17 11:12:32;;;;;;;14.25;7.10;;;;;;;;;;5075482;28;20048;-69
2021/10/17 11:15:02;;;;;;;13.35;7.10;;;;;;;;;;5028144;28;20135;-64
2021/10/17 11:17:31;;;;;;;12.13;7.07;;;;;;;;;;5072151;28;20444;-64
2021/10/17 11:19:59;;;;;;;12.20;7.00;;;;;;;;;;5082914;28;20406;-64
2021/10/17 11:22:28;;;;;;;11.65;6.90;;;;;;;;;;5084687;28;20044;-64
2021/10/17 11:24:59;;;;;;;10.80;6.85;;;;;;;;;;5078584;28;20057;-66
2021/10/17 11:27:28;;;;;;;10.15;6.43;;;;;;;;;;5076758;28;20046;-64
2021/10/17 11:29:56;;;;;;;12.55;7.18;;;;;;;;;;5089959;28;20052;-66
2021/10/17 11:32:25;;;;;;;11.65;6.90;;;;;;;;;;5070649;28;20396;-63
2021/10/17 11:35:01;;;;;;;13.32;6.82;;;;;;;;;;5084032;28;20048;-69
2021/10/17 11:37:31;;;;;;;13.63;7.38;;;;;;;;;;5084032;28;20365;-64
2021/10/17 11:40:06;;;;;;;12.35;7.30;;;;;;;;;;5079049;28;20395;-65
2021/10/17 11:42:44;;;;;;;11.93;6.75;;;;;;;;;;5082150;28;20048;-64
2021/10/17 11:45:24;;;;;;;14.32;7.68;;;;;;;;;;5068076;28;20057;-64
2021/10/17 11:47:54;;;;;;;15.55;8.45;;;;;;;;;;5076318;28;20048;-66
2021/10/17 11:50:28;;;;;;;11.80;7.28;;;;;;;;;;5078128;28;20140;-64
2021/10/17 11:52:58;;;;;;;11.50;7.13;;;;;;;;;;5088639;28;20052;-67
2021/10/17 11:55:33;;;;;;;13.85;7.75;;;;;;;;;;5063439;28;20051;-65
2021/10/17 11:58:02;;;;;;;13.32;7.65;;;;;;;;;;5074852;28;20044;-64
2021/10/17 12:00:32;;;;;;;13.68;7.78;;;;;;;;;;5065917;28;20060;-65
2021/10/17 12:03:01;;;;;;;13.73;7.50;;;;;;;;;;5049507;28;20049;-66
2021/10/17 12:05:30;;;;;;;16.63;9.07;;;;;;;;;;5078472;28;20090;-64
2021/10/17 12:08:00;;;;;;;12.18;7.18;;;;;;;;;;5077702;28;20045;-65
2021/10/17 12:10:30;;;;;;;16.83;7.85;;;;;;;;;;5079303;28;20055;-64
2021/10/17 12:13:01;;;;;;;12.52;6.65;;;;;;;;;;5069973;28;20040;-65
2021/10/17 12:15:31;;;;;;;13.43;7.50;;;;;;;;;;5078022;28;20052;-69
2021/10/17 12:18:00;;;;;;;13.35;7.65;;;;;;;;;;5066624;28;20041;-65
2021/10/17 12:20:31;;;;;;;13.13;7.57;;;;;;;;;;5080972;28;20131;-64
2021/10/17 12:23:01;;;;;;;14.57;8.27;;;;;;;;;;5058472;28;20057;-64
2021/10/17 12:25:30;;;;;;;15.02;7.45;;;;;;;;;;5073505;28;20450;-64
2021/10/17 12:28:02;;;;;;;13.43;7.57;;;;;;;;;;5070010;28;20532;-66
2021/10/17 12:30:33;;;;;;;14.32;7.00;;;;;;;;;;5071707;28;20056;-65
2021/10/17 12:33:03;;;;;;;14.40;8.13;;;;;;;;;;5081656;28;20105;-65
2021/10/17 12:35:33;;;;;;;12.13;7.20;;;;;;;;;;5067469;28;20060;-64
2021/10/17 12:38:05;;;;;;;13.60;8.10;;;;;;;;;;5091116;28;20518;-68
2021/10/17 12:40:36;;;;;;;13.02;7.75;;;;;;;;;;5076767;28;20041;-64
2021/10/17 12:43:05;;;;;;;13.85;7.95;;;;;;;;;;5078242;28;20036;-64
2021/10/17 12:45:34;;;;;;;13.95;7.93;;;;;;;;;;5087762;28;20139;-64
2021/10/17 12:48:03;;;;;;;14.63;7.32;;;;;;;;;;5073156;28;20044;-64
2021/10/17 12:50:36;;;;;;;14.38;7.82;;;;;;;;;;5074419;28;20149;-64
2021/10/17 12:53:06;;;;;;;13.18;7.53;;;;;;;;;;5078173;28;20109;-65
2021/10/17 12:55:36;;;;;;;15.27;7.80;;;;;;;;;;5075041;28;20044;-64
2021/10/17 12:58:10;;;;;;;13.80;8.20;;;;;;;;;;5084104;28;20139;-64
2021/10/17 13:00:39;;;;;;;17.45;9.23;;;;;;;;;;5075422;28;20048;-67
2021/10/17 13:03:18;;;;;;;16.00;8.00;;;;;;;;;;5091001;28;20056;-67
2021/10/17 13:05:53;;;;;;;16.63;8.18;;;;;;;;;;5073390;28;20131;-65
2021/10/17 13:08:22;;;;;;;13.77;8.20;;;;;;;;;;5073695;28;20492;-66
2021/10/17 13:10:51;;;;;;;16.17;8.48;;;;;;;;;;5075775;28;20048;-64
2021/10/17 13:13:23;;;;;;;16.92;9.13;;;;;;;;;;5078854;28;20131;-64
2021/10/17 13:15:52;;;;;;;18.35;9.82;;;;;;;;;;5087703;28;20083;-63
2021/10/17 13:18:21;;;;;;;17.77;10.02;;;;;;;;;;5088919;28;20093;-64
2021/10/17 13:20:49;;;;;;;18.40;9.82;;;;;;;;;;5072336;28;20048;-66
2021/10/17 13:23:20;;;;;;;19.90;9.80;;;;;;;;;;5086286;28;20044;-66
2021/10/17 13:25:51;;;;;;;17.33;9.10;;;;;;;;;;5074364;28;20060;-64
2021/10/17 13:28:21;;;;;;;17.58;9.52;;;;;;;;;;5089884;28;20035;-64
2021/10/17 13:30:50;;;;;;;17.98;9.50;;;;;;;;;;5092823;28;20109;-64
2021/10/17 13:33:19;;;;;;;19.25;9.73;;;;;;;;;;5084122;28;20052;-65
2021/10/17 13:35:47;;;;;;;15.63;8.52;;;;;;;;;;5072312;28;20053;-67
2021/10/17 13:38:16;;;;;;;20.00;10.10;;;;;;;;;;5074406;28;20606;-64
2021/10/17 13:40:45;;;;;;;19.77;9.55;;;;;;;;;;5071396;28;20515;-65
2021/10/17 13:43:13;;;;;;;20.80;9.80;;;;;;;;;;5078176;28;20474;-63
2021/10/17 13:45:43;;;;;;;17.58;9.85;;;;;;;;;;5083453;28;20079;-64
2021/10/17 13:48:11;;;;;;;18.65;8.98;;;;;;;;;;5088900;28;20071;-64
2021/10/17 13:50:40;;;;;;;17.90;9.85;;;;;;;;;;5082114;28;20080;-64
2021/10/17 13:53:08;;;;;;;17.10;9.07;;;;;;;;;;5071899;28;20127;-64
2021/10/17 13:55:37;;;;;;;18.95;9.52;;;;;;;;;;5072019;28;20094;-65
2021/10/17 13:58:05;;;;;;;20.90;9.25;;;;;;;;;;5073552;28;20106;-64
2021/10/17 14:00:33;;;;;;;16.33;9.18;;;;;;;;;;5065240;28;20090;-65
2021/10/17 14:03:03;;;;;;;16.38;9.23;;;;;;;;;;5071286;28;20059;-64
2021/10/17 14:05:32;;;;;;;17.50;9.00;;;;;;;;;;5074929;28;20081;-64
2021/10/17 14:08:01;;;;;;;16.30;8.15;;;;;;;;;;5070365;28;20572;-69
2021/10/17 14:10:30;;;;;;;14.45;9.05;;;;;;;;;;5074002;28;20094;-64
2021/10/17 14:12:58;;;;;;;15.73;8.50;;;;;;;;;;5078262;28;20431;-68
2021/10/17 14:15:26;;;;;;;17.98;9.25;;;;;;;;;;5087999;28;20502;-64
2021/10/17 14:17:55;;;;;;;14.07;7.82;;;;;;;;;;5074775;28;20128;-64
2021/10/17 14:20:25;;;;;;;15.15;8.50;;;;;;;;;;5076707;28;20129;-64
2021/10/17 14:22:53;;;;;;;20.35;8.90;;;;;;;;;;5077502;28;20846;-64
2021/10/17 14:25:21;;;;;;;14.20;8.18;;;;;;;;;;5077191;28;20048;-63
2021/10/17 14:27:50;;;;;;;16.77;9.43;;;;;;;;;;5077218;28;20048;-65
2021/10/17 14:30:18;;;;;;;18.60;8.95;;;;;;;;;;5071906;28;20372;-67
2021/10/17 14:32:47;;;;;;;17.48;9.02;;;;;;;;;;5070562;28;20170;-64
2021/10/17 14:35:15;;;;;;;14.60;8.27;;;;;;;;;;5065761;28;20048;-64
2021/10/17 14:37:45;;;;;;;15.55;8.68;;;;;;;;;;5068522;28;20480;-64
2021/10/17 14:40:13;;;;;;;14.70;8.45;;;;;;;;;;5068341;28;20049;-65
2021/10/17 14:42:42;;;;;;;13.95;7.90;;;;;;;;;;5076389;28;20080;-64
2021/10/17 14:45:10;;;;;;;13.60;7.53;;;;;;;;;;5067400;28;20098;-66